createdAt,value
2023-11-18T00:00:38.926Z,17.35
2023-11-18T00:03:28.625Z,16.77
2023-11-18T00:05:57.780Z,17.15
2023-11-18T00:08:26.053Z,16.92
2023-11-18T00:10:55.353Z,16.25
2023-11-18T00:13:24.012Z,15.40
2023-11-18T00:15:52.585Z,15.15
2023-11-18T00:18:30.127Z,14.50
2023-11-18T00:20:59.679Z,15.95
2023-11-18T00:23:28.118Z,14.50
2023-11-18T00:28:44.819Z,12.23
2023-11-18T00:31:13.593Z,12.70
2023-11-18T00:33:42.238Z,12.80
2023-11-18T00:36:11.105Z,13.75
2023-11-18T00:38:39.476Z,13.02
2023-11-18T00:41:08.472Z,13.50
2023-11-18T00:43:37.408Z,13.48
2023-11-18T00:46:06.702Z,13.52
2023-11-18T00:48:35.235Z,13.90
2023-11-18T00:51:05.485Z,13.82
2023-11-18T00:53:33.923Z,14.00
2023-11-18T00:56:03.008Z,13.27
2023-11-18T00:58:31.420Z,16.00
2023-11-18T01:01:00.076Z,17.58
2023-11-18T01:03:29.281Z,17.98
2023-11-18T01:05:58.181Z,17.10
2023-11-18T01:08:26.553Z,15.73
2023-11-18T01:10:55.831Z,16.02
2023-11-18T01:13:24.274Z,15.98
2023-11-18T01:15:54.464Z,17.00
2023-11-18T01:18:22.839Z,16.50
2023-11-18T01:20:51.522Z,18.70
2023-11-18T01:23:20.002Z,17.60
2023-11-18T01:25:51.292Z,18.05
2023-11-18T01:28:19.624Z,16.30
2023-11-18T01:30:48.401Z,16.33
2023-11-18T01:33:17.058Z,16.83
2023-11-18T01:35:46.200Z,17.42
2023-11-18T01:38:14.860Z,16.00
2023-11-18T01:40:43.559Z,15.63
2023-11-18T01:43:15.832Z,14.52
2023-11-18T01:45:44.792Z,13.85
2023-11-18T01:48:15.107Z,14.73
2023-11-18T01:50:45.820Z,14.15
2023-11-18T01:53:15.516Z,14.50
2023-11-18T01:55:44.444Z,14.00
2023-11-18T01:58:14.814Z,14.13
2023-11-18T02:00:44.115Z,15.00
2023-11-18T02:03:14.076Z,15.07
2023-11-18T02:05:43.743Z,14.50
2023-11-18T02:08:15.429Z,14.05
2023-11-18T02:10:51.988Z,32.58
2023-11-18T02:13:27.751Z,24.10
2023-11-18T02:15:58.439Z,18.42
2023-11-18T02:18:28.405Z,15.25
2023-11-18T02:21:00.902Z,14.48
2023-11-18T02:23:29.901Z,14.27
2023-11-18T02:25:59.103Z,14.43
2023-11-18T02:28:29.346Z,13.05
2023-11-18T02:31:16.892Z,13.40
2023-11-18T02:33:55.315Z,14.23
2023-11-18T02:36:38.290Z,14.40
2023-11-18T02:39:17.388Z,13.57
2023-11-18T02:41:49.719Z,13.38
2023-11-18T02:44:22.285Z,13.88
2023-11-18T02:46:53.601Z,13.35
2023-11-18T02:49:21.999Z,13.93
2023-11-18T02:51:54.132Z,13.80
2023-11-18T02:56:51.394Z,12.88
2023-11-18T02:59:19.989Z,12.57
2023-11-18T03:01:56.457Z,13.30
2023-11-18T03:04:25.836Z,13.10
2023-11-18T03:06:54.616Z,12.48
2023-11-18T03:09:23.014Z,13.48
2023-11-18T03:11:52.710Z,13.13
2023-11-18T03:14:21.200Z,13.05
2023-11-18T03:16:49.962Z,13.82
2023-11-18T03:19:18.335Z,13.60
2023-11-18T03:21:53.092Z,14.18
2023-11-18T03:24:21.441Z,13.73
2023-11-18T03:26:50.669Z,13.35
2023-11-18T03:29:18.917Z,13.05
2023-11-18T03:31:49.849Z,13.75
2023-11-18T03:34:21.245Z,12.93
2023-11-18T03:39:19.119Z,13.35
2023-11-18T03:41:47.994Z,12.93
2023-11-18T03:44:16.499Z,12.02
2023-11-18T03:46:45.422Z,12.75
2023-11-18T03:49:14.028Z,13.55
2023-11-18T03:51:42.768Z,12.52
2023-11-18T03:54:11.833Z,12.63
2023-11-18T03:56:40.911Z,12.65
2023-11-18T03:59:10.927Z,12.57
2023-11-18T04:01:39.686Z,12.32
2023-11-18T04:04:08.153Z,12.18
2023-11-18T04:06:37.096Z,12.13
2023-11-18T04:09:07.149Z,12.60
2023-11-18T04:11:36.470Z,11.93
2023-11-18T04:14:04.934Z,12.73
2023-11-18T04:16:33.791Z,12.15
2023-11-18T04:19:02.112Z,12.73
2023-11-18T04:21:32.576Z,12.63
2023-11-18T04:24:00.970Z,12.65
2023-11-18T04:26:30.598Z,13.15
2023-11-18T04:28:59.875Z,12.63
2023-11-18T04:31:28.891Z,13.43
2023-11-18T04:33:57.284Z,12.98
2023-11-18T04:36:27.829Z,13.60
2023-11-18T04:38:56.935Z,12.90
2023-11-18T04:41:25.895Z,14.02
2023-11-18T04:43:54.837Z,13.55
2023-11-18T04:46:23.487Z,13.82
2023-11-18T04:48:51.889Z,14.05
2023-11-18T04:51:20.762Z,13.93
2023-11-18T04:53:49.859Z,13.85
2023-11-18T04:56:19.722Z,13.50
2023-11-18T04:58:49.336Z,13.57
2023-11-18T05:01:19.671Z,13.65
2023-11-18T05:03:48.519Z,14.60
2023-11-18T05:06:17.329Z,14.40
2023-11-18T05:08:46.975Z,13.90
2023-11-18T05:11:15.917Z,14.23
2023-11-18T05:13:45.120Z,15.30
2023-11-18T05:16:13.831Z,14.65
2023-11-18T05:18:42.455Z,14.65
2023-11-18T05:21:12.629Z,14.85
2023-11-18T05:23:40.966Z,14.63
2023-11-18T05:26:10.531Z,16.17
2023-11-18T05:28:39.666Z,15.23
2023-11-18T05:31:09.725Z,15.85
2023-11-18T05:33:38.182Z,15.48
2023-11-18T05:36:08.117Z,15.70
2023-11-18T05:38:36.653Z,16.17
2023-11-18T05:41:07.778Z,15.68
2023-11-18T05:43:42.240Z,16.77
2023-11-18T05:46:34.424Z,16.98
2023-11-18T05:49:08.940Z,16.40
2023-11-18T05:51:37.779Z,17.85
2023-11-18T05:54:06.768Z,16.27
2023-11-18T05:56:36.311Z,16.27
2023-11-18T05:59:04.812Z,17.42
2023-11-18T06:01:33.770Z,17.33
2023-11-18T06:04:02.321Z,18.70
2023-11-18T06:06:33.374Z,16.92
2023-11-18T06:09:06.151Z,17.58
2023-11-18T06:11:35.766Z,18.58
2023-11-18T06:14:04.398Z,17.52
2023-11-18T06:16:33.017Z,17.02
2023-11-18T06:19:01.584Z,16.73
2023-11-18T06:21:31.751Z,17.40
2023-11-18T06:24:01.653Z,18.33
2023-11-18T06:26:30.321Z,17.75
2023-11-18T06:29:00.970Z,19.92
2023-11-18T06:31:30.750Z,20.92
2023-11-18T06:33:59.217Z,20.13
2023-11-18T06:36:29.226Z,18.90
2023-11-18T06:38:57.804Z,19.15
2023-11-18T06:41:35.422Z,28.05
2023-11-18T06:44:18.735Z,20.08
2023-11-18T06:46:47.830Z,18.73
2023-11-18T06:49:17.541Z,16.88
2023-11-18T06:51:46.616Z,17.33
2023-11-18T06:54:15.225Z,25.65
2023-11-18T06:56:45.595Z,19.50
2023-11-18T06:59:16.511Z,17.48
2023-11-18T07:01:46.824Z,16.92
2023-11-18T07:04:16.598Z,29.80
2023-11-18T07:06:46.075Z,23.40
2023-11-18T07:09:19.303Z,22.02
2023-11-18T07:11:49.617Z,18.60
2023-11-18T07:14:19.157Z,19.05
2023-11-18T07:16:48.172Z,19.50
2023-11-18T07:19:23.430Z,17.48
2023-11-18T07:21:52.399Z,16.73
2023-11-18T07:24:22.048Z,19.90
2023-11-18T07:26:52.641Z,18.13
2023-11-18T07:29:21.334Z,104.45
2023-11-18T07:31:50.659Z,41.53
2023-11-18T07:34:19.156Z,20.20
2023-11-18T07:36:48.651Z,18.50
2023-11-18T07:39:17.592Z,18.75
2023-11-18T07:41:46.437Z,20.95
2023-11-18T07:44:17.744Z,21.30
2023-11-18T07:50:56.509Z,16.98
2023-11-18T07:53:24.875Z,23.00
2023-11-18T07:55:53.755Z,29.08
2023-11-18T07:58:24.796Z,28.45
2023-11-18T08:00:54.200Z,18.80
2023-11-18T08:03:22.719Z,18.35
2023-11-18T08:05:52.376Z,18.58
2023-11-18T08:08:20.725Z,18.38
2023-11-18T08:10:50.145Z,18.02
2023-11-18T08:13:18.777Z,17.75
2023-11-18T08:15:47.807Z,19.73
2023-11-18T08:18:16.861Z,24.33
2023-11-18T08:24:51.587Z,21.23
2023-11-18T08:27:20.439Z,20.38
2023-11-18T08:29:51.655Z,18.10
2023-11-18T08:32:20.351Z,18.75
2023-11-18T08:34:52.460Z,22.70
2023-11-18T08:37:23.451Z,21.88
2023-11-18T08:39:52.524Z,18.60
2023-11-18T08:42:52.312Z,19.60
2023-11-18T08:45:23.620Z,19.70
2023-11-18T08:47:54.561Z,21.15
2023-11-18T08:50:27.431Z,19.27
2023-11-18T08:53:00.880Z,56.85
2023-11-18T08:55:41.848Z,45.13
2023-11-18T09:01:07.811Z,20.88
2023-11-18T09:03:38.345Z,18.98
2023-11-18T09:06:25.750Z,18.60
2023-11-18T09:10:24.442Z,18.80
2023-11-18T09:12:13.871Z,18.88
2023-11-18T09:14:47.118Z,19.17
2023-11-18T09:17:16.347Z,19.45
2023-11-18T09:19:48.699Z,18.50
2023-11-18T09:22:32.444Z,18.70
2023-11-18T09:25:02.204Z,18.90
2023-11-18T09:27:30.880Z,19.33
2023-11-18T09:30:01.690Z,20.45
2023-11-18T09:32:35.738Z,19.00
2023-11-18T09:35:10.754Z,17.70
2023-11-18T09:37:45.355Z,18.80
2023-11-18T09:40:19.648Z,20.02
2023-11-18T09:43:12.718Z,18.60
2023-11-18T09:45:56.260Z,18.88
2023-11-18T09:48:26.806Z,19.15
2023-11-18T09:50:59.424Z,17.50
2023-11-18T09:53:33.257Z,17.83
2023-11-18T09:56:11.325Z,16.40
2023-11-18T09:58:50.575Z,16.50
2023-11-18T10:01:28.743Z,18.05
2023-11-18T10:03:59.701Z,16.52
2023-11-18T10:06:35.656Z,19.13
2023-11-18T10:09:16.364Z,17.00
2023-11-18T10:11:48.841Z,16.95
2023-11-18T10:14:18.541Z,15.73
2023-11-18T10:16:48.439Z,16.20
2023-11-18T10:19:19.573Z,20.83
2023-11-18T10:21:51.230Z,20.40
2023-11-18T10:24:22.318Z,21.70
2023-11-18T10:27:00.193Z,19.13
2023-11-18T10:29:29.957Z,26.10
2023-11-18T10:32:09.408Z,26.13
2023-11-18T10:34:38.139Z,17.02
2023-11-18T10:37:07.924Z,18.92
2023-11-18T10:39:36.652Z,18.60
2023-11-18T10:42:06.397Z,17.65
2023-11-18T10:44:35.101Z,16.65
2023-11-18T10:47:04.460Z,15.27
2023-11-18T10:49:38.502Z,19.50
2023-11-18T10:52:10.357Z,14.27
2023-11-18T10:54:38.969Z,14.13
2023-11-18T10:57:09.330Z,14.55
2023-11-18T11:00:00.921Z,11.38
2023-11-18T11:02:37.265Z,15.20
2023-11-18T11:05:06.032Z,15.70
2023-11-18T11:07:34.985Z,15.63
2023-11-18T11:10:05.957Z,16.23
2023-11-18T11:12:53.110Z,12.77
2023-11-18T11:15:30.625Z,11.55
2023-11-18T11:18:16.162Z,11.30
2023-11-18T11:21:08.539Z,13.23
2023-11-18T11:24:02.210Z,10.43
2023-11-18T11:26:58.488Z,10.18
2023-11-18T11:29:58.470Z,8.60
2023-11-18T11:32:32.031Z,8.45
2023-11-18T11:35:10.075Z,9.02
2023-11-18T11:37:41.835Z,9.13
2023-11-18T11:42:44.006Z,8.18
2023-11-18T11:47:52.251Z,8.85
2023-11-18T11:50:33.766Z,9.55
2023-11-18T11:53:16.302Z,9.73
2023-11-18T11:55:53.857Z,9.90
2023-11-18T11:58:34.214Z,9.95
2023-11-18T12:01:24.867Z,8.88
2023-11-18T12:03:59.725Z,7.45
2023-11-18T12:06:29.462Z,9.10
2023-11-18T12:09:01.498Z,7.78
2023-11-18T12:16:09.590Z,7.63
2023-11-18T12:18:41.391Z,8.35
2023-11-18T12:21:25.096Z,8.77
2023-11-18T12:24:26.490Z,10.52
2023-11-18T12:26:55.069Z,8.38
2023-11-18T12:29:35.855Z,8.70
2023-11-18T12:32:07.294Z,11.85
2023-11-18T12:34:57.156Z,12.70
2023-11-18T12:37:47.382Z,13.30
2023-11-18T12:40:53.172Z,12.15
2023-11-18T12:43:50.363Z,8.35
2023-11-18T12:46:40.752Z,8.02
2023-11-18T12:49:43.438Z,8.45
2023-11-18T12:52:20.218Z,7.85
2023-11-18T12:54:56.991Z,8.00
2023-11-18T12:57:33.015Z,8.32
2023-11-18T13:00:05.155Z,9.65
2023-11-18T13:02:35.634Z,9.40
2023-11-18T13:05:11.441Z,9.90
2023-11-18T13:07:43.732Z,10.27
2023-11-18T13:10:16.775Z,8.82
2023-11-18T13:12:47.329Z,9.63
2023-11-18T13:15:18.140Z,8.75
2023-11-18T13:18:10.926Z,8.68
2023-11-18T13:20:46.691Z,9.27
2023-11-18T13:23:59.006Z,9.25
2023-11-18T13:35:13.403Z,9.73
2023-11-18T13:37:50.690Z,10.73
2023-11-18T13:44:12.085Z,9.23
2023-11-18T13:47:16.780Z,10.55
2023-11-18T13:50:38.186Z,11.55
2023-11-18T13:53:28.034Z,10.07
2023-11-18T13:57:07.150Z,12.07
2023-11-18T13:59:32.728Z,12.75
2023-11-18T14:02:33.006Z,15.00
2023-11-18T14:05:02.190Z,15.07
2023-11-18T14:07:31.183Z,20.08
2023-11-18T14:10:01.113Z,19.45
2023-11-18T14:12:29.741Z,18.48
2023-11-18T14:14:58.874Z,18.52
2023-11-18T14:17:31.042Z,19.92
2023-11-18T14:20:00.507Z,19.30
2023-11-18T14:22:31.755Z,14.88
2023-11-18T14:25:00.443Z,13.18
2023-11-18T14:27:30.095Z,12.65
2023-11-18T14:29:59.935Z,18.20
2023-11-18T14:32:28.324Z,17.58
2023-11-18T14:34:57.918Z,21.70
2023-11-18T14:37:27.746Z,25.65
2023-11-18T14:39:56.858Z,26.33
2023-11-18T14:42:25.195Z,27.15
2023-11-18T14:44:54.016Z,22.73
2023-11-18T14:47:22.519Z,25.25
2023-11-18T15:05:36.157Z,22.45
2023-11-18T17:15:07.160Z,29.63
2023-11-18T17:17:48.321Z,28.83
2023-11-18T17:20:17.862Z,23.75
2023-11-18T17:22:46.892Z,23.17
2023-11-18T17:25:20.495Z,25.00
2023-11-18T17:27:50.955Z,26.23
2023-11-18T17:30:19.507Z,28.33
2023-11-18T17:32:49.817Z,27.77
2023-11-18T17:35:22.476Z,26.70
2023-11-18T17:37:52.176Z,26.08
2023-11-18T17:41:11.363Z,27.40
2023-11-18T17:43:40.345Z,24.95
2023-11-18T17:46:10.406Z,25.67
2023-11-18T17:48:39.197Z,22.83
2023-11-18T17:51:08.163Z,22.02
2023-11-18T17:53:37.498Z,24.65
2023-11-18T17:56:07.751Z,25.48
2023-11-18T17:58:36.771Z,31.00
2023-11-18T18:01:11.251Z,36.08
2023-11-18T18:04:05.163Z,36.58
2023-11-18T18:06:34.378Z,29.90
2023-11-18T18:09:03.305Z,26.00
2023-11-18T18:11:35.678Z,22.02
2023-11-18T18:14:04.534Z,21.75
2023-11-18T18:16:33.422Z,22.35
2023-11-18T18:19:02.766Z,22.85
2023-11-18T18:21:31.144Z,24.67
2023-11-18T18:23:59.929Z,22.55
2023-11-18T18:26:28.429Z,16.73
2023-11-18T18:28:58.818Z,19.45
2023-11-18T18:31:27.404Z,20.20
2023-11-18T18:33:56.794Z,89.43
2023-11-18T18:36:25.484Z,35.03
2023-11-18T18:38:54.151Z,19.33
2023-11-18T18:41:22.513Z,14.55
2023-11-18T18:43:51.786Z,24.02
2023-11-18T18:46:20.273Z,24.38
2023-11-18T18:48:49.770Z,22.00
2023-11-18T18:51:18.285Z,24.70
2023-11-18T18:53:47.346Z,23.63
2023-11-18T18:56:16.133Z,22.60
2023-11-18T18:58:47.270Z,22.77
2023-11-18T19:01:15.938Z,25.50
2023-11-18T19:03:45.211Z,36.03
2023-11-18T19:06:15.095Z,34.03
2023-11-18T19:08:54.732Z,32.65
2023-11-18T19:11:23.257Z,34.85
2023-11-18T19:13:52.116Z,39.33
2023-11-18T19:16:23.316Z,37.08
2023-11-18T19:18:54.505Z,35.13
2023-11-18T19:21:27.201Z,34.53
2023-11-18T19:23:59.057Z,33.92
2023-11-18T19:26:28.546Z,28.48
2023-11-18T19:28:57.606Z,22.95
2023-11-18T19:31:26.122Z,22.88
2023-11-18T19:34:46.190Z,24.08
2023-11-18T19:37:19.555Z,34.97
2023-11-18T19:39:48.595Z,34.10
2023-11-18T19:45:29.862Z,31.02
2023-11-18T19:47:58.661Z,30.90
2023-11-18T19:50:31.896Z,30.25
2023-11-18T19:53:59.872Z,28.77
2023-11-18T19:56:05.732Z,19.25
2023-11-18T19:58:34.429Z,19.73
2023-11-18T20:01:04.798Z,16.85
2023-11-18T20:03:36.929Z,20.10
2023-11-18T20:06:08.835Z,21.05
2023-11-18T20:09:25.859Z,21.90
2023-11-18T20:11:33.311Z,17.33
2023-11-18T20:14:02.122Z,17.38
2023-11-18T20:16:34.031Z,13.48
2023-11-18T20:19:02.462Z,14.43
2023-11-18T20:21:44.582Z,13.23
2023-11-18T20:24:13.787Z,13.20
2023-11-18T20:26:45.652Z,13.45
2023-11-18T20:29:15.788Z,13.10
2023-11-18T20:31:46.100Z,12.20
2023-11-18T20:34:17.766Z,12.70
2023-11-18T20:37:44.575Z,13.10
2023-11-18T20:40:15.449Z,13.63
2023-11-18T20:42:44.753Z,13.13
2023-11-18T20:45:15.998Z,12.80
2023-11-18T20:47:52.504Z,13.75
2023-11-18T21:05:13.405Z,32.35
2023-11-18T21:07:56.965Z,34.95
2023-11-18T21:11:41.160Z,36.03
2023-11-18T21:14:19.205Z,32.53
2023-11-18T21:18:13.127Z,27.10
2023-11-18T21:21:49.754Z,28.27
2023-11-18T21:29:29.310Z,24.55
2023-11-18T21:32:03.311Z,23.17
2023-11-18T21:38:14.926Z,29.42
2023-11-18T21:44:23.184Z,28.33
2023-11-18T21:46:29.615Z,29.13
2023-11-18T21:49:39.454Z,26.58
2023-11-18T21:56:07.123Z,24.55
2023-11-18T21:58:45.740Z,24.65
2023-11-18T22:01:51.365Z,21.80
2023-11-18T22:05:11.445Z,22.08
2023-11-18T22:07:52.255Z,23.52
2023-11-18T22:14:54.565Z,20.65
2023-11-18T22:17:49.252Z,17.83
2023-11-18T22:21:17.099Z,19.15
2023-11-18T22:26:59.485Z,18.95
2023-11-18T22:29:38.832Z,18.25
2023-11-18T22:32:12.720Z,18.75
2023-11-18T22:35:38.276Z,17.70
2023-11-18T22:41:46.855Z,20.15
2023-11-18T22:44:59.397Z,20.02
2023-11-18T22:47:28.314Z,20.52
2023-11-18T22:49:58.745Z,21.73
2023-11-18T22:52:29.715Z,21.00
2023-11-18T22:54:58.303Z,21.98
2023-11-18T22:57:31.188Z,24.15
2023-11-18T23:00:00.380Z,26.00
2023-11-18T23:02:48.869Z,26.70
2023-11-18T23:05:17.800Z,29.48
2023-11-18T23:07:51.229Z,30.65
2023-11-18T23:10:27.626Z,31.27
2023-11-18T23:17:08.971Z,39.88
2023-11-18T23:20:06.799Z,35.97
2023-11-18T23:22:36.921Z,34.63
2023-11-18T23:25:07.222Z,35.63
2023-11-18T23:27:35.744Z,33.85
2023-11-18T23:30:07.882Z,34.05
2023-11-18T23:32:38.188Z,33.00
2023-11-18T23:35:10.539Z,37.25
2023-11-18T23:37:39.036Z,41.05
2023-11-18T23:40:11.486Z,41.53
2023-11-18T23:45:15.882Z,33.50
2023-11-18T23:47:52.786Z,32.30
2023-11-18T23:50:26.931Z,33.63
2023-11-18T23:52:55.644Z,31.88
2023-11-18T23:55:27.332Z,31.42
2023-11-18T23:57:56.106Z,29.60
